sensor_id;sensor_type;location;lat;lon;timestamp;P1;durP1;ratioP1;P2;durP2;ratioP2
5085;SDS011;4715;51.660;7.082;2023-01-28T00:01:11;4.50;;;4.10;;
5085;SDS011;4715;51.660;7.082;2023-01-28T00:03:34;3.90;;;3.60;;
5085;SDS011;4715;51.660;7.082;2023-01-28T00:06:00;3.90;;;3.60;;
5085;SDS011;4715;51.660;7.082;2023-01-28T00:08:25;3.60;;;3.33;;
5085;SDS011;4715;51.660;7.082;2023-01-28T00:10:48;3.40;;;3.10;;
5085;SDS011;4715;51.660;7.082;2023-01-28T00:13:10;4.20;;;3.17;;
5085;SDS011;4715;51.660;7.082;2023-01-28T00:15:33;4.23;;;3.13;;
5085;SDS011;4715;51.660;7.082;2023-01-28T00:17:55;3.13;;;2.93;;
5085;SDS011;4715;51.660;7.082;2023-01-28T00:20:17;4.10;;;3.80;;
5085;SDS011;4715;51.660;7.082;2023-01-28T00:22:39;4.30;;;4.00;;
5085;SDS011;4715;51.660;7.082;2023-01-28T00:25:03;4.30;;;4.00;;
5085;SDS011;4715;51.660;7.082;2023-01-28T00:27:25;3.60;;;3.40;;
5085;SDS011;4715;51.660;7.082;2023-01-28T00:29:47;3.93;;;3.63;;
5085;SDS011;4715;51.660;7.082;2023-01-28T00:32:09;6.83;;;4.33;;
5085;SDS011;4715;51.660;7.082;2023-01-28T00:34:31;4.73;;;4.20;;
5085;SDS011;4715;51.660;7.082;2023-01-28T00:36:53;5.03;;;4.67;;
5085;SDS011;4715;51.660;7.082;2023-01-28T00:39:17;4.50;;;4.17;;
5085;SDS011;4715;51.660;7.082;2023-01-28T00:41:41;5.47;;;3.87;;
5085;SDS011;4715;51.660;7.082;2023-01-28T00:44:03;4.30;;;4.00;;
5085;SDS011;4715;51.660;7.082;2023-01-28T00:46:25;3.97;;;3.67;;
5085;SDS011;4715;51.660;7.082;2023-01-28T00:48:47;4.23;;;3.83;;
5085;SDS011;4715;51.660;7.082;2023-01-28T00:51:10;3.60;;;3.40;;
5085;SDS011;4715;51.660;7.082;2023-01-28T00:53:33;4.03;;;3.73;;
5085;SDS011;4715;51.660;7.082;2023-01-28T00:55:57;4.07;;;3.77;;
5085;SDS011;4715;51.660;7.082;2023-01-28T00:58:21;3.97;;;3.77;;
5085;SDS011;4715;51.660;7.082;2023-01-28T01:00:43;4.23;;;3.80;;
5085;SDS011;4715;51.660;7.082;2023-01-28T01:03:05;6.13;;;4.30;;
5085;SDS011;4715;51.660;7.082;2023-01-28T01:05:27;4.33;;;3.87;;
5085;SDS011;4715;51.660;7.082;2023-01-28T01:07:49;3.90;;;3.70;;
5085;SDS011;4715;51.660;7.082;2023-01-28T01:10:12;3.70;;;3.50;;
5085;SDS011;4715;51.660;7.082;2023-01-28T01:12:35;4.20;;;3.90;;
5085;SDS011;4715;51.660;7.082;2023-01-28T01:14:58;3.30;;;3.10;;
5085;SDS011;4715;51.660;7.082;2023-01-28T01:17:20;3.80;;;3.57;;
5085;SDS011;4715;51.660;7.082;2023-01-28T01:19:43;3.53;;;3.23;;
5085;SDS011;4715;51.660;7.082;2023-01-28T01:22:05;3.77;;;3.57;;
5085;SDS011;4715;51.660;7.082;2023-01-28T01:24:26;4.30;;;3.97;;
5085;SDS011;4715;51.660;7.082;2023-01-28T01:26:53;4.43;;;4.03;;
5085;SDS011;4715;51.660;7.082;2023-01-28T01:29:17;4.27;;;3.97;;
5085;SDS011;4715;51.660;7.082;2023-01-28T01:31:49;4.23;;;3.93;;
5085;SDS011;4715;51.660;7.082;2023-01-28T01:34:11;4.23;;;4.03;;
5085;SDS011;4715;51.660;7.082;2023-01-28T01:36:33;6.63;;;4.67;;
5085;SDS011;4715;51.660;7.082;2023-01-28T01:38:55;4.73;;;4.43;;
5085;SDS011;4715;51.660;7.082;2023-01-28T01:41:21;4.63;;;4.13;;
5085;SDS011;4715;51.660;7.082;2023-01-28T01:43:45;4.40;;;4.10;;
5085;SDS011;4715;51.660;7.082;2023-01-28T01:46:09;4.57;;;4.20;;
5085;SDS011;4715;51.660;7.082;2023-01-28T01:48:32;4.50;;;4.10;;
5085;SDS011;4715;51.660;7.082;2023-01-28T01:50:56;3.60;;;3.40;;
5085;SDS011;4715;51.660;7.082;2023-01-28T01:53:22;4.53;;;4.23;;
5085;SDS011;4715;51.660;7.082;2023-01-28T01:55:48;4.83;;;4.50;;
5085;SDS011;4715;51.660;7.082;2023-01-28T01:58:13;4.90;;;4.50;;
5085;SDS011;4715;51.660;7.082;2023-01-28T02:00:38;5.20;;;4.30;;
5085;SDS011;4715;51.660;7.082;2023-01-28T02:03:01;4.73;;;4.30;;
5085;SDS011;4715;51.660;7.082;2023-01-28T02:05:28;5.00;;;4.60;;
5085;SDS011;4715;51.660;7.082;2023-01-28T02:07:51;5.17;;;4.67;;
5085;SDS011;4715;51.660;7.082;2023-01-28T02:10:35;6.00;;;5.40;;
5085;SDS011;4715;51.660;7.082;2023-01-28T02:12:56;6.00;;;5.50;;
5085;SDS011;4715;51.660;7.082;2023-01-28T02:15:21;5.47;;;5.07;;
5085;SDS011;4715;51.660;7.082;2023-01-28T02:17:49;4.60;;;4.20;;
5085;SDS011;4715;51.660;7.082;2023-01-28T02:20:13;5.83;;;5.30;;
5085;SDS011;4715;51.660;7.082;2023-01-28T02:25:53;6.53;;;6.03;;
5085;SDS011;4715;51.660;7.082;2023-01-28T02:28:33;6.17;;;5.57;;
5085;SDS011;4715;51.660;7.082;2023-01-28T02:31:02;5.70;;;5.30;;
5085;SDS011;4715;51.660;7.082;2023-01-28T02:33:29;6.57;;;5.97;;
5085;SDS011;4715;51.660;7.082;2023-01-28T02:35:55;7.07;;;6.40;;
5085;SDS011;4715;51.660;7.082;2023-01-28T02:38:25;6.97;;;6.37;;
5085;SDS011;4715;51.660;7.082;2023-01-28T02:40:53;7.30;;;6.60;;
5085;SDS011;4715;51.660;7.082;2023-01-28T02:43:29;7.53;;;6.50;;
5085;SDS011;4715;51.660;7.082;2023-01-28T02:45:57;7.60;;;6.90;;
5085;SDS011;4715;51.660;7.082;2023-01-28T02:48:41;6.43;;;5.93;;
5085;SDS011;4715;51.660;7.082;2023-01-28T02:51:06;6.77;;;6.23;;
5085;SDS011;4715;51.660;7.082;2023-01-28T02:53:40;6.27;;;5.77;;
5085;SDS011;4715;51.660;7.082;2023-01-28T02:56:10;7.33;;;6.20;;
5085;SDS011;4715;51.660;7.082;2023-01-28T02:58:40;5.70;;;5.17;;
5085;SDS011;4715;51.660;7.082;2023-01-28T03:01:08;6.10;;;5.70;;
5085;SDS011;4715;51.660;7.082;2023-01-28T03:03:40;5.90;;;5.40;;
5085;SDS011;4715;51.660;7.082;2023-01-28T03:06:08;5.73;;;5.23;;
5085;SDS011;4715;51.660;7.082;2023-01-28T03:08:38;7.20;;;6.20;;
5085;SDS011;4715;51.660;7.082;2023-01-28T03:11:21;5.63;;;5.13;;
5085;SDS011;4715;51.660;7.082;2023-01-28T03:14:03;6.70;;;6.10;;
5085;SDS011;4715;51.660;7.082;2023-01-28T03:16:44;5.77;;;5.37;;
5085;SDS011;4715;51.660;7.082;2023-01-28T03:19:25;5.87;;;5.37;;
5085;SDS011;4715;51.660;7.082;2023-01-28T03:22:04;6.30;;;5.77;;
5085;SDS011;4715;51.660;7.082;2023-01-28T03:24:44;7.33;;;6.47;;
5085;SDS011;4715;51.660;7.082;2023-01-28T03:27:28;6.40;;;5.80;;
5085;SDS011;4715;51.660;7.082;2023-01-28T03:30:18;7.10;;;6.47;;
5085;SDS011;4715;51.660;7.082;2023-01-28T03:33:02;6.30;;;5.80;;
5085;SDS011;4715;51.660;7.082;2023-01-28T03:35:45;6.27;;;5.67;;
5085;SDS011;4715;51.660;7.082;2023-01-28T03:38:26;6.50;;;5.90;;
5085;SDS011;4715;51.660;7.082;2023-01-28T03:40:54;6.57;;;6.00;;
5085;SDS011;4715;51.660;7.082;2023-01-28T03:43:19;7.07;;;6.40;;
5085;SDS011;4715;51.660;7.082;2023-01-28T03:45:44;7.97;;;7.20;;
5085;SDS011;4715;51.660;7.082;2023-01-28T03:48:11;6.67;;;6.00;;
5085;SDS011;4715;51.660;7.082;2023-01-28T03:50:34;8.80;;;7.43;;
5085;SDS011;4715;51.660;7.082;2023-01-28T03:52:56;7.93;;;7.20;;
5085;SDS011;4715;51.660;7.082;2023-01-28T03:55:32;7.53;;;6.83;;
5085;SDS011;4715;51.660;7.082;2023-01-28T03:58:02;7.73;;;7.03;;
5085;SDS011;4715;51.660;7.082;2023-01-28T04:00:25;7.47;;;6.77;;
5085;SDS011;4715;51.660;7.082;2023-01-28T04:02:52;7.63;;;6.70;;
5085;SDS011;4715;51.660;7.082;2023-01-28T04:05:16;7.90;;;6.60;;
5085;SDS011;4715;51.660;7.082;2023-01-28T04:07:39;8.10;;;7.40;;
5085;SDS011;4715;51.660;7.082;2023-01-28T04:10:05;8.83;;;7.30;;
5085;SDS011;4715;51.660;7.082;2023-01-28T04:12:28;6.63;;;6.00;;
5085;SDS011;4715;51.660;7.082;2023-01-28T04:14:50;8.20;;;7.40;;
5085;SDS011;4715;51.660;7.082;2023-01-28T04:17:13;6.70;;;6.20;;
5085;SDS011;4715;51.660;7.082;2023-01-28T04:19:44;9.03;;;7.00;;
5085;SDS011;4715;51.660;7.082;2023-01-28T04:22:10;8.80;;;8.00;;
5085;SDS011;4715;51.660;7.082;2023-01-28T04:24:32;8.00;;;7.20;;
5085;SDS011;4715;51.660;7.082;2023-01-28T04:26:55;7.37;;;6.73;;
5085;SDS011;4715;51.660;7.082;2023-01-28T04:29:17;9.17;;;8.20;;
5085;SDS011;4715;51.660;7.082;2023-01-28T04:31:39;7.57;;;6.87;;
5085;SDS011;4715;51.660;7.082;2023-01-28T04:34:02;10.37;;;8.50;;
5085;SDS011;4715;51.660;7.082;2023-01-28T04:36:25;8.13;;;7.43;;
5085;SDS011;4715;51.660;7.082;2023-01-28T04:38:47;9.03;;;8.10;;
5085;SDS011;4715;51.660;7.082;2023-01-28T04:41:10;8.03;;;7.07;;
5085;SDS011;4715;51.660;7.082;2023-01-28T04:43:33;8.50;;;7.33;;
5085;SDS011;4715;51.660;7.082;2023-01-28T04:45:56;8.93;;;8.13;;
5085;SDS011;4715;51.660;7.082;2023-01-28T04:48:18;12.80;;;8.23;;
5085;SDS011;4715;51.660;7.082;2023-01-28T04:50:42;7.20;;;6.60;;
5085;SDS011;4715;51.660;7.082;2023-01-28T04:53:07;9.00;;;8.07;;
5085;SDS011;4715;51.660;7.082;2023-01-28T04:55:28;8.87;;;8.03;;
5085;SDS011;4715;51.660;7.082;2023-01-28T04:57:51;8.17;;;7.40;;
5085;SDS011;4715;51.660;7.082;2023-01-28T05:00:13;9.17;;;8.27;;
5085;SDS011;4715;51.660;7.082;2023-01-28T05:02:45;7.63;;;7.00;;
5085;SDS011;4715;51.660;7.082;2023-01-28T05:05:09;8.27;;;7.47;;
5085;SDS011;4715;51.660;7.082;2023-01-28T05:07:32;8.73;;;7.80;;
5085;SDS011;4715;51.660;7.082;2023-01-28T05:09:55;8.03;;;7.20;;
5085;SDS011;4715;51.660;7.082;2023-01-28T05:12:20;9.27;;;7.63;;
5085;SDS011;4715;51.660;7.082;2023-01-28T05:14:42;8.27;;;7.47;;
5085;SDS011;4715;51.660;7.082;2023-01-28T05:17:04;9.43;;;8.30;;
5085;SDS011;4715;51.660;7.082;2023-01-28T05:19:26;10.50;;;8.07;;
5085;SDS011;4715;51.660;7.082;2023-01-28T05:21:50;8.53;;;7.77;;
5085;SDS011;4715;51.660;7.082;2023-01-28T05:24:12;8.60;;;7.73;;
5085;SDS011;4715;51.660;7.082;2023-01-28T05:26:36;8.10;;;7.30;;
5085;SDS011;4715;51.660;7.082;2023-01-28T05:28:58;6.57;;;6.07;;
5085;SDS011;4715;51.660;7.082;2023-01-28T05:31:20;7.50;;;6.80;;
5085;SDS011;4715;51.660;7.082;2023-01-28T05:33:42;9.20;;;7.93;;
5085;SDS011;4715;51.660;7.082;2023-01-28T05:36:05;8.07;;;7.30;;
5085;SDS011;4715;51.660;7.082;2023-01-28T05:38:27;7.80;;;7.10;;
5085;SDS011;4715;51.660;7.082;2023-01-28T05:40:49;8.50;;;7.07;;
5085;SDS011;4715;51.660;7.082;2023-01-28T05:43:12;7.83;;;7.13;;
5085;SDS011;4715;51.660;7.082;2023-01-28T05:45:34;8.10;;;7.30;;
5085;SDS011;4715;51.660;7.082;2023-01-28T05:47:56;9.77;;;7.37;;
5085;SDS011;4715;51.660;7.082;2023-01-28T05:50:20;7.17;;;6.47;;
5085;SDS011;4715;51.660;7.082;2023-01-28T05:52:42;7.97;;;6.53;;
5085;SDS011;4715;51.660;7.082;2023-01-28T05:55:05;7.23;;;6.50;;
5085;SDS011;4715;51.660;7.082;2023-01-28T05:57:28;9.57;;;7.30;;
5085;SDS011;4715;51.660;7.082;2023-01-28T05:59:51;6.87;;;6.10;;
5085;SDS011;4715;51.660;7.082;2023-01-28T06:02:17;6.57;;;6.00;;
5085;SDS011;4715;51.660;7.082;2023-01-28T06:04:45;6.90;;;5.90;;
5085;SDS011;4715;51.660;7.082;2023-01-28T06:07:07;7.80;;;6.40;;
5085;SDS011;4715;51.660;7.082;2023-01-28T06:09:32;8.70;;;7.80;;
5085;SDS011;4715;51.660;7.082;2023-01-28T06:11:56;7.03;;;6.33;;
5085;SDS011;4715;51.660;7.082;2023-01-28T06:14:19;8.03;;;7.23;;
5085;SDS011;4715;51.660;7.082;2023-01-28T06:16:44;6.87;;;6.23;;
5085;SDS011;4715;51.660;7.082;2023-01-28T06:19:06;6.50;;;5.90;;
5085;SDS011;4715;51.660;7.082;2023-01-28T06:21:29;6.90;;;6.30;;
5085;SDS011;4715;51.660;7.082;2023-01-28T06:23:53;8.03;;;7.23;;
5085;SDS011;4715;51.660;7.082;2023-01-28T06:26:16;8.73;;;7.47;;
5085;SDS011;4715;51.660;7.082;2023-01-28T06:28:39;9.50;;;6.60;;
5085;SDS011;4715;51.660;7.082;2023-01-28T06:31:04;10.13;;;8.03;;
5085;SDS011;4715;51.660;7.082;2023-01-28T06:33:27;8.17;;;7.37;;
5085;SDS011;4715;51.660;7.082;2023-01-28T06:35:50;14.97;;;8.67;;
5085;SDS011;4715;51.660;7.082;2023-01-28T06:38:12;8.07;;;7.33;;
5085;SDS011;4715;51.660;7.082;2023-01-28T06:40:35;7.63;;;6.70;;
5085;SDS011;4715;51.660;7.082;2023-01-28T06:42:57;8.07;;;6.40;;
5085;SDS011;4715;51.660;7.082;2023-01-28T06:45:24;7.77;;;6.97;;
5085;SDS011;4715;51.660;7.082;2023-01-28T06:47:47;7.43;;;6.70;;
5085;SDS011;4715;51.660;7.082;2023-01-28T06:50:11;6.60;;;6.00;;
5085;SDS011;4715;51.660;7.082;2023-01-28T06:52:35;7.10;;;6.40;;
5085;SDS011;4715;51.660;7.082;2023-01-28T06:54:59;9.63;;;7.07;;
5085;SDS011;4715;51.660;7.082;2023-01-28T06:57:24;7.20;;;6.50;;
5085;SDS011;4715;51.660;7.082;2023-01-28T06:59:46;5.83;;;5.33;;
5085;SDS011;4715;51.660;7.082;2023-01-28T07:02:08;6.73;;;6.03;;
5085;SDS011;4715;51.660;7.082;2023-01-28T07:04:33;7.13;;;6.50;;
5085;SDS011;4715;51.660;7.082;2023-01-28T07:06:57;6.67;;;6.03;;
5085;SDS011;4715;51.660;7.082;2023-01-28T07:09:20;6.30;;;5.80;;
5085;SDS011;4715;51.660;7.082;2023-01-28T07:11:42;5.77;;;5.37;;
5085;SDS011;4715;51.660;7.082;2023-01-28T07:14:04;5.80;;;5.30;;
5085;SDS011;4715;51.660;7.082;2023-01-28T07:16:27;5.33;;;4.83;;
5085;SDS011;4715;51.660;7.082;2023-01-28T07:18:49;6.23;;;5.73;;
5085;SDS011;4715;51.660;7.082;2023-01-28T07:21:11;6.03;;;5.47;;
5085;SDS011;4715;51.660;7.082;2023-01-28T07:23:36;8.60;;;7.73;;
5085;SDS011;4715;51.660;7.082;2023-01-28T07:26:02;8.10;;;7.30;;
5085;SDS011;4715;51.660;7.082;2023-01-28T07:28:25;7.50;;;6.80;;
5085;SDS011;4715;51.660;7.082;2023-01-28T07:30:49;7.77;;;7.00;;
5085;SDS011;4715;51.660;7.082;2023-01-28T07:33:14;8.50;;;7.10;;
5085;SDS011;4715;51.660;7.082;2023-01-28T07:35:38;6.47;;;5.97;;
5085;SDS011;4715;51.660;7.082;2023-01-28T07:38:02;6.63;;;5.97;;
5085;SDS011;4715;51.660;7.082;2023-01-28T07:40:26;7.10;;;6.50;;
5085;SDS011;4715;51.660;7.082;2023-01-28T07:42:49;6.67;;;6.07;;
5085;SDS011;4715;51.660;7.082;2023-01-28T07:45:11;6.50;;;5.90;;
5085;SDS011;4715;51.660;7.082;2023-01-28T07:47:35;6.33;;;5.77;;
5085;SDS011;4715;51.660;7.082;2023-01-28T07:50:00;6.87;;;6.17;;
5085;SDS011;4715;51.660;7.082;2023-01-28T07:52:22;6.97;;;6.37;;
5085;SDS011;4715;51.660;7.082;2023-01-28T07:54:44;6.90;;;6.30;;
5085;SDS011;4715;51.660;7.082;2023-01-28T07:57:08;5.20;;;4.80;;
5085;SDS011;4715;51.660;7.082;2023-01-28T07:59:30;6.47;;;5.83;;
5085;SDS011;4715;51.660;7.082;2023-01-28T08:01:55;5.80;;;5.30;;
5085;SDS011;4715;51.660;7.082;2023-01-28T08:04:17;7.10;;;5.00;;
5085;SDS011;4715;51.660;7.082;2023-01-28T08:06:39;5.40;;;4.90;;
5085;SDS011;4715;51.660;7.082;2023-01-28T08:09:00;5.20;;;4.80;;
5085;SDS011;4715;51.660;7.082;2023-01-28T08:11:24;5.43;;;5.03;;
5085;SDS011;4715;51.660;7.082;2023-01-28T08:13:48;5.10;;;4.70;;
5085;SDS011;4715;51.660;7.082;2023-01-28T08:16:12;5.50;;;4.90;;
5085;SDS011;4715;51.660;7.082;2023-01-28T08:18:34;5.40;;;4.90;;
5085;SDS011;4715;51.660;7.082;2023-01-28T08:20:58;4.97;;;4.57;;
5085;SDS011;4715;51.660;7.082;2023-01-28T08:23:20;6.23;;;5.70;;
5085;SDS011;4715;51.660;7.082;2023-01-28T08:25:45;9.30;;;6.10;;
5085;SDS011;4715;51.660;7.082;2023-01-28T08:28:12;5.83;;;5.30;;
5085;SDS011;4715;51.660;7.082;2023-01-28T08:30:38;6.23;;;5.73;;
5085;SDS011;4715;51.660;7.082;2023-01-28T08:33:01;5.83;;;5.33;;
5085;SDS011;4715;51.660;7.082;2023-01-28T08:35:28;6.53;;;6.00;;
5085;SDS011;4715;51.660;7.082;2023-01-28T08:37:51;7.23;;;6.57;;
5085;SDS011;4715;51.660;7.082;2023-01-28T08:40:17;7.63;;;6.63;;
5085;SDS011;4715;51.660;7.082;2023-01-28T08:42:50;6.80;;;6.10;;
5085;SDS011;4715;51.660;7.082;2023-01-28T08:45:15;8.57;;;6.83;;
5085;SDS011;4715;51.660;7.082;2023-01-28T08:47:47;8.60;;;6.80;;
5085;SDS011;4715;51.660;7.082;2023-01-28T08:50:14;7.87;;;7.10;;
5085;SDS011;4715;51.660;7.082;2023-01-28T08:52:38;8.73;;;6.63;;
5085;SDS011;4715;51.660;7.082;2023-01-28T08:55:03;7.37;;;6.60;;
5085;SDS011;4715;51.660;7.082;2023-01-28T08:57:27;6.77;;;6.17;;
5085;SDS011;4715;51.660;7.082;2023-01-28T08:59:49;7.83;;;7.03;;
5085;SDS011;4715;51.660;7.082;2023-01-28T09:02:16;7.40;;;6.53;;
5085;SDS011;4715;51.660;7.082;2023-01-28T09:04:40;8.43;;;7.57;;
5085;SDS011;4715;51.660;7.082;2023-01-28T09:07:03;7.73;;;7.03;;
5085;SDS011;4715;51.660;7.082;2023-01-28T09:09:26;7.13;;;6.33;;
5085;SDS011;4715;51.660;7.082;2023-01-28T09:11:53;6.73;;;6.03;;
5085;SDS011;4715;51.660;7.082;2023-01-28T09:14:17;8.30;;;7.07;;
5085;SDS011;4715;51.660;7.082;2023-01-28T09:16:42;6.70;;;6.03;;
5085;SDS011;4715;51.660;7.082;2023-01-28T09:19:04;6.50;;;5.80;;
5085;SDS011;4715;51.660;7.082;2023-01-28T09:21:28;6.07;;;5.57;;
5085;SDS011;4715;51.660;7.082;2023-01-28T09:23:53;8.30;;;5.80;;
5085;SDS011;4715;51.660;7.082;2023-01-28T09:26:17;6.83;;;6.03;;
5085;SDS011;4715;51.660;7.082;2023-01-28T09:28:41;6.47;;;5.80;;
5085;SDS011;4715;51.660;7.082;2023-01-28T09:31:05;6.23;;;5.37;;
5085;SDS011;4715;51.660;7.082;2023-01-28T09:33:28;6.17;;;5.57;;
5085;SDS011;4715;51.660;7.082;2023-01-28T09:35:58;6.20;;;5.70;;
5085;SDS011;4715;51.660;7.082;2023-01-28T09:38:24;6.10;;;5.60;;
5085;SDS011;4715;51.660;7.082;2023-01-28T09:40:46;5.40;;;5.00;;
5085;SDS011;4715;51.660;7.082;2023-01-28T09:46:02;8.00;;;6.37;;
5085;SDS011;4715;51.660;7.082;2023-01-28T09:48:26;5.93;;;5.30;;
5085;SDS011;4715;51.660;7.082;2023-01-28T09:50:53;5.77;;;5.23;;
5085;SDS011;4715;51.660;7.082;2023-01-28T09:53:17;5.77;;;5.23;;
5085;SDS011;4715;51.660;7.082;2023-01-28T09:55:45;8.33;;;5.37;;
5085;SDS011;4715;51.660;7.082;2023-01-28T09:58:11;6.23;;;5.73;;
5085;SDS011;4715;51.660;7.082;2023-01-28T10:00:37;8.70;;;6.30;;
5085;SDS011;4715;51.660;7.082;2023-01-28T10:03:15;6.40;;;5.80;;
5085;SDS011;4715;51.660;7.082;2023-01-28T10:05:53;5.67;;;5.27;;
5085;SDS011;4715;51.660;7.082;2023-01-28T10:08:28;5.80;;;5.30;;
5085;SDS011;4715;51.660;7.082;2023-01-28T10:11:08;5.67;;;5.17;;
5085;SDS011;4715;51.660;7.082;2023-01-28T10:13:39;8.47;;;6.90;;
5085;SDS011;4715;51.660;7.082;2023-01-28T10:16:14;9.73;;;7.17;;
5085;SDS011;4715;51.660;7.082;2023-01-28T10:18:44;7.97;;;6.77;;
5085;SDS011;4715;51.660;7.082;2023-01-28T10:21:14;8.00;;;6.67;;
5085;SDS011;4715;51.660;7.082;2023-01-28T10:23:44;9.17;;;7.37;;
5085;SDS011;4715;51.660;7.082;2023-01-28T10:26:17;7.80;;;7.00;;
5085;SDS011;4715;51.660;7.082;2023-01-28T10:28:44;7.90;;;7.10;;
5085;SDS011;4715;51.660;7.082;2023-01-28T10:31:14;9.70;;;8.00;;
5085;SDS011;4715;51.660;7.082;2023-01-28T10:33:38;9.53;;;8.43;;
5085;SDS011;4715;51.660;7.082;2023-01-28T10:36:02;9.60;;;7.93;;
5085;SDS011;4715;51.660;7.082;2023-01-28T10:38:26;9.70;;;8.03;;
5085;SDS011;4715;51.660;7.082;2023-01-28T10:40:51;9.40;;;7.83;;
5085;SDS011;4715;51.660;7.082;2023-01-28T10:43:20;9.10;;;8.20;;
5085;SDS011;4715;51.660;7.082;2023-01-28T10:45:51;10.00;;;7.27;;
5085;SDS011;4715;51.660;7.082;2023-01-28T10:48:20;9.40;;;7.60;;
5085;SDS011;4715;51.660;7.082;2023-01-28T10:50:49;10.47;;;8.57;;
5085;SDS011;4715;51.660;7.082;2023-01-28T10:53:14;7.80;;;6.80;;
5085;SDS011;4715;51.660;7.082;2023-01-28T10:55:44;8.57;;;7.73;;
5085;SDS011;4715;51.660;7.082;2023-01-28T10:58:13;7.90;;;6.87;;
5085;SDS011;4715;51.660;7.082;2023-01-28T11:00:41;10.70;;;8.03;;
5085;SDS011;4715;51.660;7.082;2023-01-28T11:03:03;12.20;;;9.37;;
5085;SDS011;4715;51.660;7.082;2023-01-28T11:05:25;11.07;;;8.50;;
5085;SDS011;4715;51.660;7.082;2023-01-28T11:07:49;7.93;;;6.80;;
5085;SDS011;4715;51.660;7.082;2023-01-28T11:10:22;16.03;;;9.40;;
5085;SDS011;4715;51.660;7.082;2023-01-28T11:12:53;10.50;;;7.87;;
5085;SDS011;4715;51.660;7.082;2023-01-28T11:15:16;9.67;;;8.10;;
5085;SDS011;4715;51.660;7.082;2023-01-28T11:17:45;14.20;;;8.40;;
5085;SDS011;4715;51.660;7.082;2023-01-28T11:20:17;10.10;;;8.20;;
5085;SDS011;4715;51.660;7.082;2023-01-28T11:22:41;10.53;;;8.33;;
5085;SDS011;4715;51.660;7.082;2023-01-28T11:25:13;8.63;;;7.37;;
5085;SDS011;4715;51.660;7.082;2023-01-28T11:27:39;11.37;;;8.73;;
5085;SDS011;4715;51.660;7.082;2023-01-28T11:30:00;13.37;;;9.13;;
5085;SDS011;4715;51.660;7.082;2023-01-28T11:32:24;10.60;;;8.30;;
5085;SDS011;4715;51.660;7.082;2023-01-28T11:34:49;13.00;;;9.93;;
5085;SDS011;4715;51.660;7.082;2023-01-28T11:37:13;13.10;;;9.07;;
5085;SDS011;4715;51.660;7.082;2023-01-28T11:39:35;12.23;;;8.93;;
5085;SDS011;4715;51.660;7.082;2023-01-28T11:42:16;10.20;;;8.37;;
5085;SDS011;4715;51.660;7.082;2023-01-28T11:44:39;13.70;;;8.80;;
5085;SDS011;4715;51.660;7.082;2023-01-28T11:47:05;11.00;;;8.87;;
5085;SDS011;4715;51.660;7.082;2023-01-28T11:49:40;14.80;;;11.90;;
5085;SDS011;4715;51.660;7.082;2023-01-28T11:52:17;15.67;;;11.63;;
5085;SDS011;4715;51.660;7.082;2023-01-28T11:54:44;13.87;;;10.67;;
5085;SDS011;4715;51.660;7.082;2023-01-28T11:57:22;12.63;;;9.87;;
5085;SDS011;4715;51.660;7.082;2023-01-28T11:59:55;12.93;;;9.07;;
5085;SDS011;4715;51.660;7.082;2023-01-28T12:05:15;12.17;;;9.30;;
5085;SDS011;4715;51.660;7.082;2023-01-28T12:07:51;14.00;;;8.87;;
5085;SDS011;4715;51.660;7.082;2023-01-28T12:10:25;14.33;;;11.40;;
5085;SDS011;4715;51.660;7.082;2023-01-28T12:13:04;16.83;;;11.43;;
5085;SDS011;4715;51.660;7.082;2023-01-28T12:15:44;16.27;;;11.67;;
5085;SDS011;4715;51.660;7.082;2023-01-28T12:18:26;12.50;;;10.30;;
5085;SDS011;4715;51.660;7.082;2023-01-28T12:20:58;12.20;;;9.83;;
5085;SDS011;4715;51.660;7.082;2023-01-28T12:23:31;11.53;;;9.23;;
5085;SDS011;4715;51.660;7.082;2023-01-28T12:26:06;12.20;;;9.27;;
5085;SDS011;4715;51.660;7.082;2023-01-28T12:28:42;12.23;;;8.83;;
5085;SDS011;4715;51.660;7.082;2023-01-28T12:31:17;11.13;;;8.67;;
5085;SDS011;4715;51.660;7.082;2023-01-28T12:34:05;11.97;;;9.43;;
5085;SDS011;4715;51.660;7.082;2023-01-28T12:36:47;12.53;;;9.27;;
5085;SDS011;4715;51.660;7.082;2023-01-28T12:39:22;12.63;;;9.07;;
5085;SDS011;4715;51.660;7.082;2023-01-28T12:41:56;13.93;;;9.77;;
5085;SDS011;4715;51.660;7.082;2023-01-28T12:44:25;11.07;;;9.13;;
5085;SDS011;4715;51.660;7.082;2023-01-28T12:46:52;14.37;;;10.40;;
5085;SDS011;4715;51.660;7.082;2023-01-28T12:49:17;11.57;;;9.27;;
5085;SDS011;4715;51.660;7.082;2023-01-28T12:51:45;10.53;;;9.43;;
5085;SDS011;4715;51.660;7.082;2023-01-28T12:54:15;11.53;;;8.70;;
5085;SDS011;4715;51.660;7.082;2023-01-28T12:56:44;13.27;;;9.20;;
5085;SDS011;4715;51.660;7.082;2023-01-28T12:59:10;11.13;;;8.97;;
5085;SDS011;4715;51.660;7.082;2023-01-28T13:01:36;10.37;;;8.30;;
5085;SDS011;4715;51.660;7.082;2023-01-28T13:04:03;9.73;;;8.83;;
5085;SDS011;4715;51.660;7.082;2023-01-28T13:06:30;9.20;;;8.03;;
5085;SDS011;4715;51.660;7.082;2023-01-28T13:08:59;9.97;;;8.23;;
5085;SDS011;4715;51.660;7.082;2023-01-28T13:11:33;11.53;;;9.20;;
5085;SDS011;4715;51.660;7.082;2023-01-28T13:13:57;11.17;;;8.70;;
5085;SDS011;4715;51.660;7.082;2023-01-28T13:16:20;8.27;;;7.37;;
5085;SDS011;4715;51.660;7.082;2023-01-28T13:18:42;11.43;;;7.93;;
5085;SDS011;4715;51.660;7.082;2023-01-28T13:21:05;9.83;;;8.83;;
5085;SDS011;4715;51.660;7.082;2023-01-28T13:23:36;13.10;;;9.40;;
5085;SDS011;4715;51.660;7.082;2023-01-28T13:26:07;9.17;;;8.00;;
5085;SDS011;4715;51.660;7.082;2023-01-28T13:28:32;10.93;;;8.30;;
5085;SDS011;4715;51.660;7.082;2023-01-28T13:31:00;9.07;;;8.17;;
5085;SDS011;4715;51.660;7.082;2023-01-28T13:33:24;10.87;;;8.20;;
5085;SDS011;4715;51.660;7.082;2023-01-28T13:35:52;9.53;;;7.17;;
5085;SDS011;4715;51.660;7.082;2023-01-28T13:38:16;9.50;;;7.87;;
5085;SDS011;4715;51.660;7.082;2023-01-28T13:40:39;8.53;;;7.67;;
5085;SDS011;4715;51.660;7.082;2023-01-28T13:43:04;9.63;;;8.50;;
5085;SDS011;4715;51.660;7.082;2023-01-28T13:45:53;10.27;;;8.20;;
5085;SDS011;4715;51.660;7.082;2023-01-28T13:48:20;10.30;;;8.37;;
5085;SDS011;4715;51.660;7.082;2023-01-28T13:50:47;10.30;;;8.60;;
5085;SDS011;4715;51.660;7.082;2023-01-28T13:53:19;9.83;;;8.07;;
5085;SDS011;4715;51.660;7.082;2023-01-28T13:55:47;9.87;;;8.13;;
5085;SDS011;4715;51.660;7.082;2023-01-28T14:01:11;9.43;;;8.37;;
5085;SDS011;4715;51.660;7.082;2023-01-28T14:07:21;9.37;;;7.77;;
5085;SDS011;4715;51.660;7.082;2023-01-28T14:10:07;6.63;;;5.97;;
5085;SDS011;4715;51.660;7.082;2023-01-28T14:13:01;8.10;;;6.30;;
5085;SDS011;4715;51.660;7.082;2023-01-28T14:18:33;12.60;;;9.50;;
5085;SDS011;4715;51.660;7.082;2023-01-28T14:20:59;15.20;;;10.53;;
5085;SDS011;4715;51.660;7.082;2023-01-28T14:23:24;17.70;;;11.90;;
5085;SDS011;4715;51.660;7.082;2023-01-28T14:25:53;15.83;;;12.20;;
5085;SDS011;4715;51.660;7.082;2023-01-28T14:28:26;17.90;;;13.03;;
5085;SDS011;4715;51.660;7.082;2023-01-28T14:30:56;14.03;;;11.60;;
5085;SDS011;4715;51.660;7.082;2023-01-28T14:33:25;18.43;;;13.77;;
5085;SDS011;4715;51.660;7.082;2023-01-28T14:35:48;14.73;;;10.90;;
5085;SDS011;4715;51.660;7.082;2023-01-28T14:38:11;19.73;;;12.30;;
5085;SDS011;4715;51.660;7.082;2023-01-28T14:40:38;14.80;;;11.37;;
5085;SDS011;4715;51.660;7.082;2023-01-28T14:43:00;15.77;;;12.47;;
5085;SDS011;4715;51.660;7.082;2023-01-28T14:45:33;17.47;;;12.00;;
5085;SDS011;4715;51.660;7.082;2023-01-28T14:48:18;17.33;;;11.50;;
5085;SDS011;4715;51.660;7.082;2023-01-28T14:50:49;16.40;;;11.43;;
5085;SDS011;4715;51.660;7.082;2023-01-28T14:56:30;15.80;;;10.03;;
5085;SDS011;4715;51.660;7.082;2023-01-28T14:59:00;11.37;;;8.50;;
5085;SDS011;4715;51.660;7.082;2023-01-28T15:01:30;11.60;;;9.27;;
5085;SDS011;4715;51.660;7.082;2023-01-28T15:03:52;13.00;;;9.60;;
5085;SDS011;4715;51.660;7.082;2023-01-28T15:06:18;18.23;;;9.40;;
5085;SDS011;4715;51.660;7.082;2023-01-28T15:08:44;12.70;;;8.57;;
5085;SDS011;4715;51.660;7.082;2023-01-28T15:11:06;11.03;;;9.00;;
5085;SDS011;4715;51.660;7.082;2023-01-28T15:13:35;10.00;;;7.20;;
5085;SDS011;4715;51.660;7.082;2023-01-28T15:15:59;8.60;;;7.70;;
5085;SDS011;4715;51.660;7.082;2023-01-28T15:18:22;10.03;;;8.30;;
5085;SDS011;4715;51.660;7.082;2023-01-28T15:20:51;9.20;;;7.73;;
5085;SDS011;4715;51.660;7.082;2023-01-28T15:23:15;10.03;;;7.70;;
5085;SDS011;4715;51.660;7.082;2023-01-28T15:25:42;9.03;;;8.20;;
5085;SDS011;4715;51.660;7.082;2023-01-28T15:28:04;10.33;;;8.67;;
5085;SDS011;4715;51.660;7.082;2023-01-28T15:30:28;9.73;;;7.90;;